Time;durP1;ratioP1;P1;durP2;ratioP2;P2;SDS_P1;SDS_P2;PMS_P1;PMS_P2;Temp;Humidity;BMP_temperature;BMP_pressure;BME280_temperature;BME280_humidity;BME280_pressure;Samples;Min_cycle;Max_cycle;Signal;HPM_P1;HPM_P2
2021/09/15 00:01:09;;;;;;;13.25;8.05;;;16.40;99.90;;;;;;4990633;28;20445;-64
2021/09/15 00:03:37;;;;;;;11.85;8.02;;;16.30;99.90;;;;;;4989038;28;20796;-64
2021/09/15 00:06:02;;;;;;;12.07;7.63;;;16.30;99.90;;;;;;4990719;28;20038;-64
2021/09/15 00:08:28;;;;;;;10.02;7.78;;;16.20;99.90;;;;;;4989226;28;20033;-64
2021/09/15 00:10:53;;;;;;;13.82;8.00;;;16.10;99.90;;;;;;4991739;28;20485;-64
2021/09/15 00:13:18;;;;;;;12.10;8.50;;;16.20;99.90;;;;;;4989760;28;20709;-64
2021/09/15 00:15:44;;;;;;;14.63;8.73;;;16.00;99.90;;;;;;4989312;28;20035;-64
2021/09/15 00:18:09;;;;;;;17.13;9.02;;;16.00;99.90;;;;;;4989939;28;20040;-64
2021/09/15 00:20:35;;;;;;;13.90;8.57;;;15.90;99.90;;;;;;4991819;28;20469;-64
2021/09/15 00:23:00;;;;;;;12.30;7.93;;;15.90;99.90;;;;;;4987191;28;20038;-64
2021/09/15 00:25:26;;;;;;;14.43;8.93;;;15.90;99.90;;;;;;4991123;28;20497;-64
2021/09/15 00:27:51;;;;;;;11.43;8.02;;;15.90;99.90;;;;;;4990062;28;20034;-64
2021/09/15 00:30:17;;;;;;;12.35;9.30;;;15.80;99.90;;;;;;4971002;28;20100;-64
2021/09/15 00:32:42;;;;;;;11.73;8.77;;;15.80;99.90;;;;;;4970977;28;20145;-64
2021/09/15 00:35:09;;;;;;;12.13;8.75;;;15.70;99.90;;;;;;4990134;28;20037;-65
2021/09/15 00:37:34;;;;;;;14.15;8.95;;;15.70;99.90;;;;;;4987529;28;20169;-65
2021/09/15 00:40:00;;;;;;;21.85;10.00;;;15.70;99.90;;;;;;4990250;28;20686;-65
2021/09/15 00:42:25;;;;;;;13.88;9.40;;;15.60;99.90;;;;;;4989503;28;20038;-64
2021/09/15 00:44:52;;;;;;;13.43;8.88;;;15.10;99.90;;;;;;4988047;28;20037;-64
2021/09/15 00:47:18;;;;;;;15.07;9.82;;;15.60;99.90;;;;;;4988541;28;20125;-64
2021/09/15 00:49:46;;;;;;;16.27;9.82;;;15.60;99.90;;;;;;4991441;28;20808;-64
2021/09/15 00:52:13;;;;;;;16.05;9.63;;;15.60;99.90;;;;;;4987845;28;20042;-64
2021/09/15 00:54:39;;;;;;;12.95;9.38;;;15.50;99.90;;;;;;4989794;28;20064;-64
2021/09/15 00:57:04;;;;;;;13.80;9.88;;;15.50;99.90;;;;;;4984195;28;20145;-64
2021/09/15 00:59:31;;;;;;;20.15;10.25;;;15.90;99.90;;;;;;4987187;28;20038;-64
2021/09/15 01:01:57;;;;;;;14.15;9.15;;;15.50;99.90;;;;;;4989748;28;20034;-65
2021/09/15 01:04:23;;;;;;;14.45;9.35;;;15.70;99.90;;;;;;4984818;28;20038;-64
2021/09/15 01:06:52;;;;;;;17.90;10.20;;;15.40;99.90;;;;;;4991713;28;20042;-64
2021/09/15 01:09:18;;;;;;;13.77;10.07;;;15.40;99.90;;;;;;4986889;28;20080;-65
2021/09/15 01:11:45;;;;;;;13.32;9.75;;;15.50;99.90;;;;;;4989274;28;20025;-65
2021/09/15 01:14:19;;;;;;;12.77;9.73;;;15.50;99.90;;;;;;4988950;28;20037;-64
2021/09/15 01:17:05;;;;;;;15.00;9.85;;;15.40;99.90;;;;;;4989680;28;20117;-65
2021/09/15 01:19:49;;;;;;;16.38;9.95;;;15.50;99.90;;;;;;4996237;28;20116;-64
2021/09/15 01:22:33;;;;;;;15.68;9.45;;;15.50;99.90;;;;;;4992839;28;20411;-64
2021/09/15 01:25:22;;;;;;;16.90;10.05;;;15.50;99.90;;;;;;4990541;28;20824;-64
2021/09/15 01:28:14;;;;;;;17.02;9.95;;;15.50;99.90;;;;;;4991153;28;20046;-64
2021/09/15 01:30:43;;;;;;;14.05;10.32;;;15.60;99.90;;;;;;4986576;28;20034;-65
2021/09/15 01:33:10;;;;;;;15.15;9.68;;;15.60;99.90;;;;;;4986868;28;20030;-64
2021/09/15 01:35:36;;;;;;;17.85;10.38;;;15.60;99.90;;;;;;4987983;28;20108;-65
2021/09/15 01:38:01;;;;;;;16.42;9.68;;;15.60;99.90;;;;;;4987521;28;20038;-66
2021/09/15 01:40:27;;;;;;;15.15;9.43;;;15.60;99.90;;;;;;4993140;28;20030;-65
2021/09/15 01:42:53;;;;;;;19.70;10.10;;;15.60;99.90;;;;;;4974430;28;20077;-65
2021/09/15 01:45:19;;;;;;;17.88;10.32;;;15.60;99.90;;;;;;4993635;28;20117;-65
2021/09/15 01:47:45;;;;;;;17.10;10.27;;;15.60;99.90;;;;;;4990295;28;20030;-65
2021/09/15 01:50:11;;;;;;;15.52;9.70;;;15.60;99.90;;;;;;4991977;28;20049;-66
2021/09/15 01:52:38;;;;;;;18.95;10.18;;;15.60;99.90;;;;;;4992880;28;20433;-65
2021/09/15 01:55:18;;;;;;;14.55;9.88;;;15.60;99.90;;;;;;4993782;28;20034;-65
2021/09/15 01:57:44;;;;;;;15.18;10.45;;;15.60;99.90;;;;;;4973892;28;20026;-65
2021/09/15 02:00:39;;;;;;;16.40;9.90;;;15.60;99.90;;;;;;4991835;28;20257;-65
2021/09/15 02:03:22;;;;;;;19.88;10.13;;;15.60;99.90;;;;;;4990354;28;20034;-66
2021/09/15 02:06:05;;;;;;;16.55;10.68;;;15.60;99.90;;;;;;4990161;28;20041;-65
2021/09/15 02:08:35;;;;;;;16.65;10.23;;;15.60;99.90;;;;;;4990128;28;20037;-65
2021/09/15 02:11:17;;;;;;;20.23;10.63;;;15.60;99.90;;;;;;4991989;28;20030;-65
2021/09/15 02:13:43;;;;;;;13.23;9.73;;;15.60;99.90;;;;;;4983188;28;20041;-65
2021/09/15 02:16:09;;;;;;;18.27;10.68;;;15.60;99.90;;;;;;4988785;28;20026;-65
2021/09/15 02:18:34;;;;;;;16.02;10.75;;;15.60;99.90;;;;;;4992932;28;20025;-65
2021/09/15 02:21:19;;;;;;;18.47;10.50;;;15.60;99.90;;;;;;4990919;28;20022;-65
2021/09/15 02:24:05;;;;;;;17.48;9.70;;;15.60;99.90;;;;;;4992557;28;20542;-65
2021/09/15 02:26:55;;;;;;;16.38;10.48;;;15.70;99.90;;;;;;4988648;28;20109;-65
2021/09/15 02:29:21;;;;;;;13.98;9.98;;;15.60;99.90;;;;;;4991782;28;20116;-65
2021/09/15 02:32:05;;;;;;;12.23;10.07;;;15.70;99.90;;;;;;4989333;28;20056;-65
2021/09/15 02:35:09;;;;;;;17.20;10.73;;;15.70;99.90;;;;;;5009740;28;20868;-65
2021/09/15 02:38:04;;;;;;;15.30;11.70;;;15.60;99.90;;;;;;4993019;28;20057;-65
2021/09/15 02:40:46;;;;;;;14.05;11.50;;;15.70;99.90;;;;;;5007496;28;20520;-65
2021/09/15 02:43:31;;;;;;;17.63;10.68;;;15.70;99.90;;;;;;4989939;28;20129;-65
2021/09/15 02:46:12;;;;;;;19.27;11.32;;;15.70;99.90;;;;;;4989001;28;20113;-65
2021/09/15 02:48:56;;;;;;;19.52;11.27;;;15.60;99.90;;;;;;4990494;28;20067;-65
2021/09/15 02:51:28;;;;;;;19.20;11.13;;;15.60;99.90;;;;;;4988897;28;20058;-65
2021/09/15 02:54:19;;;;;;;16.98;11.02;;;15.60;99.90;;;;;;4989842;28;20030;-65
2021/09/15 02:56:59;;;;;;;15.27;11.43;;;15.60;99.90;;;;;;4992391;28;20030;-65
2021/09/15 02:59:38;;;;;;;16.05;11.00;;;15.50;99.90;;;;;;4991903;28;20037;-65
2021/09/15 03:02:24;;;;;;;20.27;13.48;;;15.50;99.90;;;;;;4991711;28;20042;-65
2021/09/15 03:05:16;;;;;;;17.60;11.10;;;15.50;99.90;;;;;;4987394;28;20038;-64
2021/09/15 03:08:00;;;;;;;14.52;10.73;;;15.50;99.90;;;;;;4993204;28;20166;-65
2021/09/15 03:10:26;;;;;;;17.38;11.65;;;15.50;99.90;;;;;;4990354;28;20074;-65
2021/09/15 03:12:52;;;;;;;18.17;12.00;;;15.50;99.90;;;;;;4990884;28;20517;-65
2021/09/15 03:15:17;;;;;;;20.92;11.60;;;14.60;99.90;;;;;;4996390;28;20026;-65
2021/09/15 03:17:43;;;;;;;15.23;11.35;;;15.60;99.90;;;;;;4990581;28;20034;-65
2021/09/15 03:20:08;;;;;;;15.20;11.23;;;15.50;99.90;;;;;;4991812;28;20080;-65
2021/09/15 03:22:35;;;;;;;16.50;12.00;;;15.50;99.90;;;;;;4988388;28;20077;-65
2021/09/15 03:25:01;;;;;;;16.17;11.45;;;15.50;99.90;;;;;;4989066;28;20042;-65
2021/09/15 03:27:27;;;;;;;18.98;12.57;;;15.50;99.90;;;;;;4989471;28;20030;-64
2021/09/15 03:29:52;;;;;;;20.15;12.55;;;15.50;99.90;;;;;;4992322;28;20042;-64
2021/09/15 03:32:18;;;;;;;18.85;11.75;;;15.60;99.90;;;;;;4988277;28;20096;-64
2021/09/15 03:34:44;;;;;;;18.40;12.30;;;15.60;99.90;;;;;;4990036;28;20157;-64
2021/09/15 03:37:09;;;;;;;15.65;11.15;;;15.60;99.90;;;;;;4988513;28;20026;-65
2021/09/15 03:39:35;;;;;;;20.55;12.27;;;15.60;99.90;;;;;;4991898;28;20061;-64
2021/09/15 03:42:00;;;;;;;19.08;12.48;;;15.70;99.90;;;;;;4993970;28;20453;-65
2021/09/15 03:44:27;;;;;;;23.90;11.95;;;15.70;99.90;;;;;;4987818;28;20038;-64
2021/09/15 03:46:53;;;;;;;16.88;12.38;;;15.70;99.90;;;;;;4974363;28;20080;-65
2021/09/15 03:49:19;;;;;;;15.95;11.77;;;15.60;99.90;;;;;;4993957;28;20888;-64
2021/09/15 03:51:46;;;;;;;18.75;12.85;;;15.60;99.90;;;;;;4990086;28;20040;-64
2021/09/15 03:54:11;;;;;;;17.35;11.40;;;15.60;99.90;;;;;;4991037;28;20026;-65
2021/09/15 03:56:37;;;;;;;17.48;12.63;;;15.60;99.90;;;;;;4993549;28;20033;-64
2021/09/15 03:59:03;;;;;;;19.17;12.43;;;15.60;99.90;;;;;;4988647;28;20034;-64
2021/09/15 04:01:28;;;;;;;19.77;12.40;;;15.50;99.90;;;;;;4993113;28;20158;-65
2021/09/15 04:03:54;;;;;;;19.85;13.18;;;15.50;99.90;;;;;;4971850;28;20037;-64
2021/09/15 04:06:20;;;;;;;20.55;13.05;;;15.50;99.90;;;;;;4987822;28;20065;-65
2021/09/15 04:08:45;;;;;;;19.63;12.52;;;15.60;99.90;;;;;;4993199;28;20038;-65
2021/09/15 04:11:11;;;;;;;15.63;12.32;;;15.60;99.90;;;;;;4997952;28;20033;-65
2021/09/15 04:13:37;;;;;;;17.63;11.98;;;15.60;99.90;;;;;;4992478;28;20092;-64
2021/09/15 04:16:02;;;;;;;18.27;12.05;;;15.60;99.90;;;;;;4990890;28;20517;-64
2021/09/15 04:18:29;;;;;;;20.48;12.75;;;15.70;99.90;;;;;;4986361;28;20030;-64
2021/09/15 04:20:54;;;;;;;20.27;11.82;;;15.70;99.90;;;;;;4995842;28;20032;-65
2021/09/15 04:23:31;;;;;;;17.85;12.75;;;15.70;99.90;;;;;;4995731;28;20044;-65
2021/09/15 04:31:30;;;;;;;18.02;12.77;;;15.80;99.90;;;;;;4994365;28;20038;-64
2021/09/15 04:33:55;;;;;;;17.35;12.35;;;15.70;99.90;;;;;;4991759;28;20091;-67
2021/09/15 04:36:24;;;;;;;21.15;12.73;;;15.70;99.90;;;;;;4990459;28;20746;-68
2021/09/15 04:38:50;;;;;;;25.83;15.05;;;15.80;99.90;;;;;;4988920;28;20026;-67
2021/09/15 04:41:17;;;;;;;18.92;13.50;;;15.80;99.90;;;;;;4986924;28;20113;-68
2021/09/15 04:43:43;;;;;;;16.48;12.00;;;15.80;99.90;;;;;;4990025;28;20041;-67
2021/09/15 04:46:09;;;;;;;21.10;12.82;;;15.90;99.90;;;;;;4990447;28;20030;-68
2021/09/15 04:48:37;;;;;;;18.33;12.93;;;15.90;99.90;;;;;;4990075;28;20029;-68
2021/09/15 04:51:03;;;;;;;21.40;12.68;;;15.80;99.90;;;;;;4996102;28;20042;-64
2021/09/15 04:53:28;;;;;;;18.27;11.82;;;15.80;99.90;;;;;;4977513;28;20862;-65
2021/09/15 04:55:54;;;;;;;22.58;12.30;;;15.70;99.90;;;;;;4988180;28;20216;-64
2021/09/15 04:58:21;;;;;;;20.15;12.20;;;15.80;99.90;;;;;;4991765;28;20566;-64
2021/09/15 05:00:48;;;;;;;20.38;13.60;;;15.80;99.90;;;;;;4987790;28;20034;-65
2021/09/15 05:03:13;;;;;;;21.00;12.90;;;15.80;99.90;;;;;;4982289;28;20811;-65
2021/09/15 05:05:41;;;;;;;20.27;13.40;;;15.80;99.90;;;;;;4972270;28;20121;-65
2021/09/15 05:08:13;;;;;;;26.70;15.85;;;15.80;99.90;;;;;;4990825;28;20112;-64
2021/09/15 05:10:39;;;;;;;17.52;12.05;;;15.80;99.90;;;;;;4997073;28;20033;-64
2021/09/15 05:13:05;;;;;;;16.80;11.57;;;15.90;99.90;;;;;;4985451;28;20045;-65
2021/09/15 05:15:30;;;;;;;16.42;11.95;;;15.90;99.90;;;;;;4991387;28;20030;-64
2021/09/15 05:18:00;;;;;;;17.83;12.00;;;15.90;99.90;;;;;;4993813;28;20030;-64
2021/09/15 05:20:29;;;;;;;16.90;12.73;;;15.90;99.90;;;;;;4991232;28;20847;-64
2021/09/15 05:22:55;;;;;;;17.15;12.52;;;15.90;99.90;;;;;;4995152;28;20042;-67
2021/09/15 05:25:20;;;;;;;20.73;12.70;;;15.90;99.90;;;;;;4996828;28;20125;-67
2021/09/15 05:27:46;;;;;;;20.48;13.40;;;15.90;99.90;;;;;;4990605;28;20517;-67
2021/09/15 05:30:12;;;;;;;19.73;12.18;;;15.90;99.90;;;;;;4995192;28;20085;-67
2021/09/15 05:32:41;;;;;;;19.85;13.18;;;15.80;99.90;;;;;;4981773;28;20489;-67
2021/09/15 05:35:07;;;;;;;19.10;12.90;;;16.00;99.90;;;;;;4998907;28;20034;-67
2021/09/15 05:37:32;;;;;;;17.63;13.23;;;15.90;99.90;;;;;;4993592;28;20022;-67
2021/09/15 05:39:59;;;;;;;16.00;12.15;;;16.00;99.90;;;;;;4997307;28;20026;-66
2021/09/15 05:42:25;;;;;;;17.98;12.48;;;16.00;99.90;;;;;;5001158;28;20038;-67
2021/09/15 05:44:51;;;;;;;18.05;12.15;;;16.00;99.90;;;;;;4994701;28;20454;-66
2021/09/15 05:47:17;;;;;;;22.02;14.65;;;16.00;99.90;;;;;;4994434;28;20436;-66
2021/09/15 05:49:43;;;;;;;22.13;13.80;;;16.10;99.90;;;;;;5000889;28;20041;-67
2021/09/15 05:52:09;;;;;;;39.45;23.05;;;16.10;99.90;;;;;;4999752;28;20044;-67
2021/09/15 05:54:34;;;;;;;20.10;13.25;;;16.20;99.90;;;;;;4992850;28;20030;-65
2021/09/15 05:57:00;;;;;;;19.58;13.32;;;16.30;99.90;;;;;;4997565;28;20217;-65
2021/09/15 05:59:25;;;;;;;16.25;12.93;;;16.20;99.90;;;;;;4991721;28;20058;-66
2021/09/15 06:01:51;;;;;;;20.80;13.43;;;16.20;99.90;;;;;;4982630;28;20061;-66
2021/09/15 06:04:17;;;;;;;26.67;17.30;;;16.20;99.90;;;;;;4974220;28;20116;-66
2021/09/15 06:06:52;;;;;;;20.73;14.07;;;16.30;99.90;;;;;;4986459;28;20042;-67
2021/09/15 06:09:19;;;;;;;19.13;13.02;;;16.40;99.90;;;;;;4991011;28;20040;-67
2021/09/15 06:11:45;;;;;;;16.42;12.18;;;16.50;99.90;;;;;;4999517;28;20038;-66
2021/09/15 06:14:11;;;;;;;18.90;12.55;;;16.40;99.90;;;;;;4992905;28;20030;-66
2021/09/15 06:16:37;;;;;;;17.98;12.00;;;16.40;99.90;;;;;;4991130;28;20026;-66
2021/09/15 06:19:03;;;;;;;20.33;12.73;;;16.50;99.90;;;;;;4992264;28;20502;-66
2021/09/15 06:21:47;;;;;;;27.38;11.98;;;16.60;99.90;;;;;;4999008;28;20111;-66
2021/09/15 06:24:36;;;;;;;18.25;11.65;;;16.80;99.90;;;;;;4991673;28;20145;-66
2021/09/15 06:27:01;;;;;;;20.10;12.95;;;16.80;99.90;;;;;;4995518;28;20145;-66
2021/09/15 06:29:27;;;;;;;21.73;11.90;;;16.80;99.90;;;;;;4990896;28;20569;-66
2021/09/15 06:31:53;;;;;;;17.65;11.40;;;16.90;99.90;;;;;;4994536;28;20034;-66
2021/09/15 06:34:18;;;;;;;16.73;11.60;;;16.90;99.90;;;;;;4972238;28;20670;-65
2021/09/15 06:36:43;;;;;;;18.02;11.10;;;16.90;99.90;;;;;;4993895;28;20549;-66
2021/09/15 06:39:09;;;;;;;21.35;11.85;;;17.00;99.90;;;;;;4996574;28;20022;-66
2021/09/15 06:41:35;;;;;;;23.60;13.27;;;17.10;99.90;;;;;;4987374;28;20132;-66
2021/09/15 06:44:00;;;;;;;20.13;13.07;;;17.20;99.90;;;;;;4995077;28;20572;-66
2021/09/15 06:46:26;;;;;;;18.00;10.80;;;17.40;99.90;;;;;;4990911;28;20029;-67
2021/09/15 06:48:51;;;;;;;16.95;10.85;;;17.50;99.90;;;;;;4995996;28;20065;-67
2021/09/15 06:51:17;;;;;;;15.73;11.02;;;17.60;99.90;;;;;;4989360;28;20483;-66
2021/09/15 06:53:43;;;;;;;16.88;10.68;;;17.70;99.90;;;;;;4990501;28;20026;-67
2021/09/15 06:56:09;;;;;;;11.65;9.48;;;17.80;99.90;;;;;;4996454;28;20053;-66
2021/09/15 06:58:35;;;;;;;14.82;10.05;;;18.00;99.90;;;;;;4988387;28;20031;-67
2021/09/15 07:01:02;;;;;;;13.32;9.68;;;17.90;99.90;;;;;;4992071;28;20034;-66
2021/09/15 07:03:27;;;;;;;14.30;9.98;;;18.00;99.90;;;;;;4993667;28;20702;-67
2021/09/15 07:05:53;;;;;;;15.18;9.82;;;18.10;99.90;;;;;;4992594;28;20041;-66
2021/09/15 07:08:18;;;;;;;19.10;10.13;;;18.20;99.90;;;;;;4994151;28;20042;-66
2021/09/15 07:10:44;;;;;;;14.38;10.48;;;18.20;99.90;;;;;;4993736;28;20249;-67
2021/09/15 07:13:09;;;;;;;14.95;9.65;;;18.20;99.90;;;;;;4991919;28;20502;-67
2021/09/15 07:15:35;;;;;;;13.60;9.23;;;18.40;99.90;;;;;;4990389;28;20026;-67
2021/09/15 07:18:00;;;;;;;16.52;9.38;;;18.60;99.90;;;;;;4988731;28;20030;-67
2021/09/15 07:20:26;;;;;;;13.68;9.90;;;18.90;99.90;;;;;;4992115;28;20065;-67
2021/09/15 07:22:51;;;;;;;13.02;10.02;;;19.10;99.90;;;;;;4990599;28;20041;-67
2021/09/15 07:25:17;;;;;;;12.90;9.27;;;19.20;99.90;;;;;;4992832;28;20074;-67
2021/09/15 07:27:42;;;;;;;18.70;12.40;;;19.20;99.90;;;;;;4996225;28;20061;-67
2021/09/15 07:30:08;;;;;;;15.70;10.10;;;19.20;99.90;;;;;;4988998;28;20034;-67
2021/09/15 07:32:33;;;;;;;25.65;16.50;;;19.20;99.90;;;;;;4996010;28;20050;-67
2021/09/15 07:35:02;;;;;;;14.82;9.73;;;19.30;99.90;;;;;;4994416;28;20097;-67
2021/09/15 07:37:29;;;;;;;18.50;9.25;;;19.60;99.90;;;;;;4989080;28;20030;-67
2021/09/15 07:39:55;;;;;;;11.48;8.30;;;19.60;99.90;;;;;;4993385;28;20104;-67
2021/09/15 07:42:20;;;;;;;12.25;9.05;;;19.80;99.90;;;;;;4990950;28;20073;-67
2021/09/15 07:44:46;;;;;;;13.80;8.88;;;20.00;99.90;;;;;;4989101;28;20057;-67
2021/09/15 07:47:16;;;;;;;12.18;8.15;;;20.20;99.90;;;;;;4990604;28;20465;-67
2021/09/15 07:49:41;;;;;;;16.25;8.18;;;20.40;99.90;;;;;;4992132;28;20049;-67
2021/09/15 07:52:07;;;;;;;12.23;8.27;;;20.40;99.90;;;;;;4988743;28;20051;-67
2021/09/15 07:54:32;;;;;;;12.85;8.18;;;20.50;99.90;;;;;;4990549;28;20026;-66
2021/09/15 07:56:58;;;;;;;12.43;7.95;;;20.60;99.90;;;;;;4990271;28;20034;-67
2021/09/15 07:59:23;;;;;;;11.73;7.85;;;20.50;99.90;;;;;;4987828;28;20081;-66
2021/09/15 08:01:49;;;;;;;11.25;7.93;;;20.60;99.90;;;;;;4989758;28;20941;-68
2021/09/15 08:04:14;;;;;;;14.25;8.10;;;20.90;99.90;;;;;;4989729;28;20069;-67
2021/09/15 08:06:40;;;;;;;16.08;7.35;;;21.10;99.90;;;;;;4990622;28;20037;-67
2021/09/15 08:09:05;;;;;;;10.35;7.22;;;21.10;99.90;;;;;;4994331;28;20088;-67
2021/09/15 08:11:32;;;;;;;12.77;7.72;;;21.30;99.90;;;;;;4990097;28;20034;-67
2021/09/15 08:13:58;;;;;;;11.02;7.53;;;21.30;99.90;;;;;;4988728;28;20077;-67
2021/09/15 08:16:23;;;;;;;13.68;8.25;;;21.40;99.90;;;;;;4989734;28;20069;-67
2021/09/15 08:18:49;;;;;;;9.07;6.85;;;21.40;99.90;;;;;;4996016;28;20026;-70
2021/09/15 08:21:14;;;;;;;12.90;7.50;;;21.50;99.90;;;;;;4990319;28;20034;-67
2021/09/15 08:23:39;;;;;;;9.50;7.38;;;21.40;99.90;;;;;;4990299;28;20197;-67
2021/09/15 08:26:05;;;;;;;10.90;7.53;;;21.20;99.90;;;;;;4989269;28;20054;-67
2021/09/15 08:28:36;;;;;;;12.82;7.88;;;21.10;99.90;;;;;;4989265;28;20732;-67
2021/09/15 08:31:01;;;;;;;16.10;8.18;;;21.20;99.90;;;;;;4996852;28;20711;-67
2021/09/15 08:33:28;;;;;;;16.77;8.70;;;21.20;99.90;;;;;;4987068;28;20206;-68
2021/09/15 08:35:53;;;;;;;11.98;9.05;;;21.30;99.90;;;;;;4992890;28;20042;-67
2021/09/15 08:38:19;;;;;;;14.65;9.18;;;21.50;99.90;;;;;;4992489;28;20029;-67
2021/09/15 08:40:44;;;;;;;11.07;8.85;;;21.40;99.90;;;;;;4991415;28;20892;-67
2021/09/15 08:43:10;;;;;;;20.00;8.38;;;21.10;99.90;;;;;;4988393;28;20841;-67
2021/09/15 08:45:35;;;;;;;19.10;8.52;;;21.10;99.90;;;;;;4987469;28;20038;-67
2021/09/15 08:48:01;;;;;;;9.70;8.05;;;21.30;99.90;;;;;;4988833;28;20045;-67
2021/09/15 08:50:26;;;;;;;10.63;8.40;;;21.20;99.90;;;;;;4990313;28;20073;-67
2021/09/15 08:52:52;;;;;;;14.43;8.50;;;21.40;99.90;;;;;;4989889;28;20077;-67
2021/09/15 08:55:17;;;;;;;13.45;8.07;;;21.30;99.90;;;;;;4991032;28;20044;-67
2021/09/15 08:57:43;;;;;;;9.77;7.97;;;21.30;99.90;;;;;;4989564;28;20645;-70
2021/09/15 09:00:08;;;;;;;11.93;7.45;;;21.30;99.90;;;;;;4990866;28;20038;-67
2021/09/15 09:02:34;;;;;;;9.98;7.47;;;21.40;99.90;;;;;;4988265;28;20038;-67
2021/09/15 09:05:03;;;;;;;11.23;7.63;;;21.50;99.90;;;;;;4988185;28;20049;-67
2021/09/15 09:07:28;;;;;;;15.25;8.48;;;21.40;99.90;;;;;;4993961;28;20061;-67
2021/09/15 09:09:54;;;;;;;21.13;12.98;;;21.30;99.90;;;;;;4987449;28;20573;-67
2021/09/15 09:12:19;;;;;;;32.08;18.25;;;21.30;99.90;;;;;;4993151;28;20041;-67
2021/09/15 09:14:45;;;;;;;19.13;10.63;;;21.30;99.90;;;;;;4989716;28;20911;-67
2021/09/15 09:17:10;;;;;;;10.52;8.27;;;21.50;99.90;;;;;;4992652;28;20029;-67
2021/09/15 09:19:36;;;;;;;13.15;8.73;;;21.80;99.90;;;;;;4992497;28;20763;-67
2021/09/15 09:22:06;;;;;;;14.35;7.88;;;21.90;99.90;;;;;;4987722;28;20041;-67
2021/09/15 09:24:31;;;;;;;11.35;8.23;;;22.00;99.90;;;;;;4987303;28;20581;-67
2021/09/15 09:26:57;;;;;;;14.55;8.02;;;21.90;99.90;;;;;;4990208;28;20035;-67
2021/09/15 09:29:27;;;;;;;15.55;8.15;;;22.10;99.90;;;;;;4989725;28;20037;-67
2021/09/15 09:31:54;;;;;;;12.73;8.45;;;22.20;99.90;;;;;;4990966;28;20038;-67
2021/09/15 09:34:20;;;;;;;17.50;8.02;;;22.60;99.90;;;;;;4988374;28;20030;-69
2021/09/15 09:36:45;;;;;;;15.27;8.38;;;22.60;99.90;;;;;;4990821;28;20838;-67
2021/09/15 09:39:11;;;;;;;10.80;8.70;;;22.70;99.90;;;;;;4990516;28;20087;-67
2021/09/15 09:41:36;;;;;;;15.73;8.32;;;23.00;99.90;;;;;;4993820;28;20865;-67
2021/09/15 09:44:02;;;;;;;13.10;7.97;;;23.20;99.90;;;;;;4986592;28;20069;-67
2021/09/15 09:46:32;;;;;;;17.30;8.60;;;23.10;99.90;;;;;;4986497;28;20461;-67
2021/09/15 09:48:58;;;;;;;10.50;8.18;;;22.90;99.90;;;;;;4990664;28;20026;-67
2021/09/15 09:51:23;;;;;;;15.68;8.50;;;23.00;99.90;;;;;;4988643;28;20113;-67
2021/09/15 09:53:48;;;;;;;11.82;7.35;;;23.10;99.90;;;;;;4990622;28;20030;-68
2021/09/15 09:56:14;;;;;;;12.55;8.05;;;23.50;99.90;;;;;;4986122;28;20117;-68
2021/09/15 09:58:39;;;;;;;14.70;8.15;;;23.80;99.90;;;;;;4989426;28;20030;-67
2021/09/15 10:01:05;;;;;;;17.35;7.82;;;24.00;99.90;;;;;;4986601;28;20778;-67
2021/09/15 10:03:31;;;;;;;10.60;6.97;;;24.00;99.90;;;;;;4991288;28;20073;-67
2021/09/15 10:05:56;;;;;;;15.90;10.00;;;24.00;99.90;;;;;;4991430;28;20061;-67
2021/09/15 10:08:22;;;;;;;18.50;11.45;;;23.90;99.90;;;;;;4993977;28;20107;-67
2021/09/15 10:10:47;;;;;;;11.75;7.30;;;23.80;99.90;;;;;;4998048;28;20034;-67
2021/09/15 10:13:13;;;;;;;15.95;10.30;;;23.70;99.90;;;;;;4988420;28;20776;-67
2021/09/15 10:15:38;;;;;;;17.15;10.07;;;23.70;99.90;;;;;;4990848;28;20034;-67
2021/09/15 10:18:04;;;;;;;9.65;7.13;;;23.80;99.90;;;;;;4989571;28;20022;-67
2021/09/15 10:20:29;;;;;;;11.57;6.43;;;23.70;99.90;;;;;;4991270;28;20096;-67
2021/09/15 10:22:56;;;;;;;9.80;6.05;;;23.80;99.90;;;;;;4990157;28;20713;-67
2021/09/15 10:25:21;;;;;;;11.07;6.78;;;23.60;99.90;;;;;;4991141;28;20030;-67
2021/09/15 10:27:47;;;;;;;9.65;6.93;;;23.60;99.90;;;;;;4987959;28;20030;-67
2021/09/15 10:30:12;;;;;;;8.80;5.97;;;23.70;99.90;;;;;;4991782;28;20636;-67
2021/09/15 10:32:38;;;;;;;12.88;6.43;;;23.70;99.90;;;;;;4990553;28;20038;-67
2021/09/15 10:35:03;;;;;;;12.57;6.00;;;23.80;99.90;;;;;;4993515;28;20445;-67
2021/09/15 10:37:29;;;;;;;15.27;9.65;;;23.90;99.90;;;;;;4989350;28;20044;-67
2021/09/15 10:39:54;;;;;;;15.27;8.20;;;24.10;99.90;;;;;;4991112;28;20044;-67
2021/09/15 10:42:20;;;;;;;8.10;5.30;;;23.90;99.90;;;;;;4995390;28;20842;-67
2021/09/15 10:44:45;;;;;;;16.88;6.55;;;23.90;99.90;;;;;;4987668;28;21042;-67
2021/09/15 10:47:11;;;;;;;7.55;5.05;;;24.00;99.90;;;;;;4988794;28;20038;-66
2021/09/15 10:49:36;;;;;;;9.48;5.43;;;24.20;99.90;;;;;;4996586;28;20128;-66
2021/09/15 10:52:01;;;;;;;9.63;5.78;;;24.20;99.90;;;;;;4993548;28;20509;-67
2021/09/15 10:54:27;;;;;;;11.20;5.75;;;24.30;99.90;;;;;;4986222;28;20034;-67
2021/09/15 10:56:52;;;;;;;12.30;6.10;;;24.40;99.90;;;;;;4973619;28;20153;-68
2021/09/15 10:59:18;;;;;;;10.57;6.53;;;24.30;99.90;;;;;;4992470;28;20030;-67
2021/09/15 11:01:43;;;;;;;15.05;5.88;;;24.30;99.90;;;;;;4986082;28;20038;-67
2021/09/15 11:04:11;;;;;;;10.98;5.57;;;24.60;99.90;;;;;;4989283;28;20990;-67
2021/09/15 11:06:37;;;;;;;9.18;5.43;;;24.50;99.90;;;;;;4991322;28;20656;-67
2021/09/15 11:09:02;;;;;;;8.05;5.68;;;24.60;99.90;;;;;;4989954;28;20612;-67
2021/09/15 11:11:28;;;;;;;8.40;5.80;;;24.50;99.90;;;;;;4993724;28;20112;-67
2021/09/15 11:13:53;;;;;;;6.65;4.72;;;24.60;99.90;;;;;;4988394;28;20136;-70
2021/09/15 11:16:19;;;;;;;7.13;5.35;;;24.80;99.90;;;;;;4989643;28;20120;-70
2021/09/15 11:18:45;;;;;;;10.65;5.13;;;25.00;99.90;;;;;;4991103;28;20807;-70
2021/09/15 11:21:11;;;;;;;9.02;5.30;;;25.00;99.90;;;;;;4991864;28;20031;-70
2021/09/15 11:23:37;;;;;;;6.93;4.88;;;24.80;99.90;;;;;;4989805;28;20041;-70
2021/09/15 11:26:04;;;;;;;6.97;5.03;;;24.70;99.90;;;;;;4987618;28;20037;-73
2021/09/15 11:28:30;;;;;;;6.10;4.93;;;24.70;99.90;;;;;;4995274;28;20505;-71
2021/09/15 11:30:55;;;;;;;9.30;5.55;;;24.80;99.90;;;;;;4996953;28;20045;-68
2021/09/15 11:33:21;;;;;;;10.18;4.97;;;24.50;99.90;;;;;;4989582;28;20926;-71
2021/09/15 11:35:46;;;;;;;9.43;4.95;;;24.50;99.90;;;;;;4995844;28;20303;-71
2021/09/15 11:38:12;;;;;;;8.25;5.40;;;24.60;99.90;;;;;;4991375;28;20065;-71
2021/09/15 11:40:37;;;;;;;12.00;6.07;;;24.50;99.90;;;;;;4989271;28;20022;-71
2021/09/15 11:43:03;;;;;;;10.15;5.68;;;24.60;99.90;;;;;;4989135;28;20490;-71
2021/09/15 11:45:28;;;;;;;10.63;4.85;;;24.50;99.90;;;;;;4987031;28;20100;-71
2021/09/15 11:47:54;;;;;;;7.30;4.88;;;24.50;99.90;;;;;;4990902;28;20116;-72
2021/09/15 11:50:19;;;;;;;6.75;4.65;;;24.40;99.90;;;;;;4994553;28;20553;-71
2021/09/15 11:52:47;;;;;;;12.10;7.28;;;24.40;99.90;;;;;;4991953;28;20042;-71
2021/09/15 11:55:15;;;;;;;11.07;5.97;;;24.40;99.90;;;;;;4987517;28;20099;-68
2021/09/15 11:57:40;;;;;;;10.80;5.30;;;24.30;99.90;;;;;;4970059;28;20034;-69
2021/09/15 12:00:05;;;;;;;6.07;4.70;;;24.60;99.90;;;;;;4992584;28;20025;-68
2021/09/15 12:02:35;;;;;;;14.18;6.40;;;24.40;99.90;;;;;;4987165;28;20058;-68
2021/09/15 12:05:01;;;;;;;15.13;6.50;;;24.30;99.90;;;;;;4988020;28;20439;-71
2021/09/15 12:07:27;;;;;;;12.48;6.15;;;25.00;99.90;;;;;;4988402;28;20038;-71
2021/09/15 12:09:52;;;;;;;10.25;6.65;;;24.20;99.90;;;;;;4988992;28;20081;-71
2021/09/15 12:12:18;;;;;;;11.70;6.13;;;24.20;99.90;;;;;;4988307;28;20148;-72
2021/09/15 12:14:43;;;;;;;12.70;6.65;;;24.10;99.90;;;;;;4990651;28;20041;-68
2021/09/15 12:17:09;;;;;;;13.30;5.97;;;24.00;99.90;;;;;;4993909;28;20959;-69
2021/09/15 12:19:36;;;;;;;9.43;5.82;;;23.70;99.90;;;;;;4991870;28;20029;-69
2021/09/15 12:22:02;;;;;;;9.00;5.47;;;23.30;99.90;;;;;;4990940;28;20093;-64
2021/09/15 12:24:27;;;;;;;10.48;7.43;;;22.90;99.90;;;;;;4990535;28;20034;-66
2021/09/15 12:26:53;;;;;;;12.55;6.72;;;22.60;99.90;;;;;;4993691;28;20696;-64
2021/09/15 12:29:20;;;;;;;11.80;7.60;;;22.30;99.90;;;;;;4993137;28;20069;-65
2021/09/15 12:31:46;;;;;;;18.23;9.85;;;21.90;99.90;;;;;;4989610;28;20029;-65
2021/09/15 12:34:12;;;;;;;12.20;7.65;;;21.50;99.90;;;;;;4991079;28;20730;-65
2021/09/15 12:36:37;;;;;;;14.65;8.30;;;21.20;99.90;;;;;;4989548;28;20040;-66
2021/09/15 12:39:03;;;;;;;17.98;9.68;;;20.80;99.90;;;;;;4988897;28;20026;-66
2021/09/15 12:41:28;;;;;;;18.30;8.90;;;20.70;99.90;;;;;;4985134;28;20487;-66